EST,Max TemperatureF,Mean TemperatureF,Min TemperatureF,Max Dew PointF,MeanDew PointF,Min DewpointF,Max Humidity, Mean Humidity, Min Humidity, Max Sea Level PressureIn, Mean Sea Level PressureIn, Min Sea Level PressureIn, Max VisibilityMiles, Mean VisibilityMiles, Min VisibilityMiles, Max Wind SpeedMPH, Mean Wind SpeedMPH, Max Gust SpeedMPH,PrecipitationIn, CloudCover, Events, WindDirDegrees
2013-1-1,33,32,32,34,33,32,100,98,93,30.12,30.07,30.03,10,5,1,7,2,,0.00,8,Rain-Snow,15
2013-1-2,33,28,23,32,23,19,100,77,60,30.23,30.19,30.10,10,10,2,8,3,,0.00,2,,45
2013-1-3,37,28,19,27,22,19,100,79,48,30.36,30.27,30.21,10,9,5,12,3,18,0.00,0,,280
2013-1-4,37,32,28,27,25,23,86,75,65,30.40,30.37,30.34,10,10,10,15,8,24,0.00,4,,279
2013-1-5,42,32,23,30,26,21,93,74,57,30.40,30.32,30.20,10,10,10,9,6,,0.00,2,,237
2013-1-6,42,35,28,32,29,21,81,74,66,30.37,30.17,30.07,10,10,10,17,9,26,0.00,8,,273
2013-1-7,41,31,21,27,24,19,100,75,53,30.48,30.38,30.25,10,9,5,7,2,,0.00,1,,156
2013-1-8,51,40,28,32,29,23,93,70,47,30.37,30.30,30.25,10,10,10,12,7,20,0.00,0,,215
2013-1-9,51,43,35,46,41,32,100,88,71,30.52,30.39,30.26,10,8,0,9,6,,0.00,6,Fog-Rain,248
2013-1-10,48,40,33,45,39,34,100,90,76,30.52,30.38,30.12,10,8,0,12,5,17,0.00,6,Fog-Rain,112
2013-1-11,64,57,50,55,53,45,100,85,72,30.12,30.03,29.95,10,9,1,20,10,34,0.00,5,Rain,219
2013-1-12,66,60,55,63,60,55,100,95,83,30.10,30.02,29.92,10,10,5,15,8,18,0.00,5,Rain,216
2013-1-13,64,50,37,59,53,36,100,91,73,30.15,29.96,29.88,10,8,2,21,10,32,0.00,7,Rain,223
2013-1-14,37,34,30,36,29,27,100,87,80,30.41,30.30,30.17,10,10,7,12,7,,0.00,8,Snow,20
2013-1-15,32,30,28,32,29,27,100,92,86,30.32,30.21,30.01,10,8,3,13,8,17,0.00,8,Rain,61
2013-1-16,33,32,32,34,32,32,100,99,93,30.12,30.05,29.94,10,5,2,6,1,,0.00,7,Rain,268
2013-1-17,35,32,30,32,30,28,100,92,81,30.35,30.17,30.10,10,8,3,14,4,18,0.00,1,,32
2013-1-18,39,30,21,28,24,19,93,77,52,30.54,30.45,30.32,10,10,10,12,5,,0.00,0,,224
2013-1-19,53,42,32,30,27,25,80,56,33,30.32,30.18,30.03,10,10,10,21,12,30,0.00,0,,239
2013-1-20,42,34,26,32,22,12,81,54,31,30.21,30.14,30.04,10,10,10,16,10,25,0.00,0,,304
2013-1-21,32,24,15,19,12,1,86,59,34,30.24,30.15,30.08,10,10,10,24,7,31,0.00,3,,300
2013-1-22,21,16,12,5,1,-2,67,53,36,30.39,30.32,30.24,10,10,10,14,8,21,0.00,1,,301
2013-1-23,32,22,12,19,10,3,85,59,40,30.36,30.25,30.08,10,10,10,10,5,9,0.00,5,,268
2013-1-24,26,22,17,18,6,0,86,52,36,30.54,30.41,30.10,10,10,10,15,7,28,0.00,1,,35
2013-1-25,28,24,21,27,19,5,100,80,46,30.40,30.17,30.04,10,7,2,12,7,16,0.00,7,Snow,205
2013-1-26,35,30,24,27,23,19,100,78,56,30.43,30.30,30.19,10,9,5,10,6,16,0.00,3,,315
2013-1-27,44,34,23,41,25,19,100,72,37,30.43,30.35,30.22,10,10,7,12,6,16,0.00,3,Rain,149
2013-1-28,55,48,41,50,45,37,100,86,67,30.23,30.16,30.12,10,8,3,20,11,30,0.00,7,Rain,235
2013-1-29,69,60,51,57,53,48,88,77,56,30.13,29.99,29.73,10,10,10,20,12,28,0.00,4,,227
2013-1-30,68,50,33,57,50,30,100,86,64,29.72,29.52,29.38,10,9,1,28,16,37,0.00,7,Rain,231
2013-1-31,32,30,26,30,24,19,100,76,64,29.98,29.89,29.65,10,8,0,24,16,36,0.00,8,Snow,287